Wind From: 11-12-2017 06:00 Until: 12-12-2017 06:00 warning for: Wind Level: Orange info button

Power and phone distribution networks may be disrupted for relatively long periods., Roofs and chimneys can be damaged. , Tree branches may break. , Vehicles can be deported. , Traffic may be disrupted, particularly on secondary roads in forest areas. Limit your trips. , Limit your speed in highway driving, especially if you drive a vehicle or hitch sensitive to wind. , Do not go for walks in forests or along the coast., In town, be vigilant against possible falling objects., Do not work on roofs and do not touch any electrical line fallen on the ground., Store or secure sensitive objects to wind or likely to be damaged., Always install power generators outside buildings. 


Meteo18 Weather Cam more information Meteo18 Weather Cam


Thunder radar more information blitzortung!


Rain radar more information rain snow radar


Visit our other weather sites:

Template documentation
and downloads

And another site



Weather Underground History page Text

Daily Summary for September 29, 2016 Units:  Metric    English   Both
« Previous Day
Next Day »
Daily Weekly Monthly Yearly Custom
  High: Low: Average:
Temperature: 26.6 °C 9.3 °C 17.9 °C
Dew Point: 11.8 °C 7.9 °C 10.5 °C
Humidity: 94 % 37 % 66 %
Wind Speed: 20.9 km/h 0.0 km/h 4.4 km/h
Wind Gust: 29.0 km/h - -
Wind:- - SW
Pressure: 1026.6 hPa 1016.5 hPa -
Precipitation: 0.0 mm    
Historical Graphs
 
 
Tabular Data for September 29, 2016
Time Temperature Dew Point Pressure Wind Wind Speed Wind Gust Humidity Rainfall Rate (Hourly)
00:02 14.7 °C 11.7 °C 1026.6 hPa Calm     82 % 0.0 mm
00:12 14.4 °C 11.7 °C 1026.6 hPa Calm     84 % 0.0 mm
00:17 14.2 °C 11.5 °C 1026.6 hPa Calm     84 % 0.0 mm
00:22 14.2 °C 11.5 °C 1026.6 hPa Calm     84 % 0.0 mm
00:27 14.1 °C 11.4 °C 1026.6 hPa Calm     84 % 0.0 mm
00:37 13.9 °C 11.2 °C 1026.6 hPa Calm     84 % 0.0 mm
00:42 13.9 °C 11.6 °C 1026.6 hPa Calm     86 % 0.0 mm
00:52 13.8 °C 11.5 °C 1026.6 hPa Calm     86 % 0.0 mm
00:57 13.8 °C 11.5 °C 1026.3 hPa Calm     86 % 0.0 mm
01:02 13.7 °C 11.6 °C 1026.3 hPa Calm     87 % 0.0 mm
01:07 13.7 °C 11.7 °C 1026.3 hPa Calm     88 % 0.0 mm
01:12 13.6 °C 11.5 °C 1026.3 hPa Calm     87 % 0.0 mm
01:17 13.5 °C 11.4 °C 1026.3 hPa Calm     87 % 0.0 mm
01:22 13.4 °C 11.5 °C 1026.3 hPa Calm     88 % 0.0 mm
01:27 13.3 °C 11.5 °C 1026.0 hPa Calm     89 % 0.0 mm
01:32 13.3 °C 11.5 °C 1026.3 hPa Calm     89 % 0.0 mm
01:42 13.1 °C 11.2 °C 1026.0 hPa Calm     88 % 0.0 mm
01:47 13.0 °C 11.1 °C 1026.0 hPa Calm     88 % 0.0 mm
01:52 12.9 °C 11.0 °C 1026.0 hPa Calm     88 % 0.0 mm
01:57 12.8 °C 10.9 °C 1026.0 hPa Calm     88 % 0.0 mm
02:02 12.8 °C 11.0 °C 1026.0 hPa Calm     89 % 0.0 mm
02:12 12.9 °C 11.1 °C 1026.0 hPa Calm     89 % 0.0 mm
02:17 12.9 °C 11.0 °C 1026.0 hPa Calm     88 % 0.0 mm
02:22 12.8 °C 11.0 °C 1026.0 hPa Calm     89 % 0.0 mm
02:27 12.8 °C 11.0 °C 1026.0 hPa Calm     89 % 0.0 mm
02:32 12.7 °C 10.9 °C 1026.0 hPa Calm     89 % 0.0 mm
02:42 12.7 °C 11.1 °C 1026.0 hPa Calm     90 % 0.0 mm
02:47 12.6 °C 11.0 °C 1025.6 hPa Calm     90 % 0.0 mm
02:52 12.5 °C 10.9 °C 1025.6 hPa Calm     90 % 0.0 mm
02:57 12.4 °C 10.8 °C 1025.6 hPa Calm     90 % 0.0 mm
03:02 12.2 °C 10.6 °C 1025.6 hPa Calm     90 % 0.0 mm
03:12 12.0 °C 10.6 °C 1025.6 hPa Calm     91 % 0.0 mm
03:17 11.9 °C 10.5 °C 1025.6 hPa Calm     91 % 0.0 mm
03:22 11.8 °C 10.5 °C 1025.6 hPa Calm     92 % 0.0 mm
03:27 12.0 °C 10.7 °C 1025.3 hPa Calm     92 % 0.0 mm
03:32 11.9 °C 10.6 °C 1025.3 hPa Calm     92 % 0.0 mm
03:37 11.8 °C 10.5 °C 1025.3 hPa Calm     92 % 0.0 mm
03:42 11.6 °C 10.2 °C 1025.3 hPa Calm     91 % 0.0 mm
03:47 11.7 °C 10.6 °C 1025.3 hPa Calm     93 % 0.0 mm
03:52 11.7 °C 10.4 °C 1025.3 hPa Calm     92 % 0.0 mm
03:57 11.8 °C 10.5 °C 1025.3 hPa Calm     92 % 0.0 mm
04:02 11.7 °C 10.3 °C 1024.9 hPa Calm     91 % 0.0 mm
04:12 11.6 °C 10.3 °C 1024.9 hPa Calm     92 % 0.0 mm
04:17 11.5 °C 10.2 °C 1024.9 hPa Calm     92 % 0.0 mm
04:22 11.3 °C 10.0 °C 1024.9 hPa Calm     92 % 0.0 mm
04:32 10.9 °C 9.7 °C 1024.9 hPa Calm     92 % 0.0 mm
04:37 10.9 °C 9.7 °C 1024.6 hPa Calm     92 % 0.0 mm
04:42 10.9 °C 9.7 °C 1024.6 hPa Calm     92 % 0.0 mm
04:47 10.8 °C 9.7 °C 1024.6 hPa Calm     93 % 0.0 mm
04:52 10.7 °C 9.6 °C 1024.6 hPa Calm     93 % 0.0 mm
05:02 10.6 °C 9.5 °C 1024.6 hPa Calm     93 % 0.0 mm
05:12 10.7 °C 9.8 °C 1024.3 hPa Calm     94 % 0.0 mm
05:17 10.7 °C 9.8 °C 1024.3 hPa Calm     94 % 0.0 mm
05:22 10.7 °C 9.8 °C 1024.3 hPa Calm     94 % 0.0 mm
05:32 10.6 °C 9.5 °C 1024.3 hPa Calm     93 % 0.0 mm
05:37 10.4 °C 9.3 °C 1024.3 hPa Calm     93 % 0.0 mm
05:42 10.2 °C 9.1 °C 1024.3 hPa Calm     93 % 0.0 mm
05:47 10.2 °C 9.1 °C 1024.3 hPa Calm     93 % 0.0 mm
05:57 10.2 °C 9.3 °C 1023.9 hPa Calm     94 % 0.0 mm
06:02 10.2 °C 9.3 °C 1023.9 hPa Calm     94 % 0.0 mm
06:12 10.0 °C 8.9 °C 1023.9 hPa Calm     93 % 0.0 mm
06:17 9.9 °C 8.8 °C 1023.9 hPa Calm     93 % 0.0 mm
06:22 9.9 °C 9.0 °C 1023.9 hPa Calm     94 % 0.0 mm
06:32 9.8 °C 8.7 °C 1023.9 hPa Calm     93 % 0.0 mm
06:42 9.7 °C 8.5 °C 1023.6 hPa Calm     92 % 0.0 mm
06:52 9.6 °C 8.4 °C 1023.6 hPa Calm     92 % 0.0 mm
06:57 9.6 °C 8.2 °C 1023.6 hPa Calm     91 % 0.0 mm
07:02 9.5 °C 8.1 °C 1023.6 hPa Calm     91 % 0.0 mm
07:12 9.5 °C 8.1 °C 1023.6 hPa Calm     91 % 0.0 mm
07:17 9.5 °C 8.1 °C 1023.6 hPa Calm     91 % 0.0 mm
07:22 9.4 °C 8.0 °C 1023.6 hPa Calm     91 % 0.0 mm
07:32 9.3 °C 7.9 °C 1023.2 hPa Calm     91 % 0.0 mm
07:42 9.3 °C 7.9 °C 1023.2 hPa Calm     91 % 0.0 mm
07:47 9.3 °C 7.9 °C 1023.2 hPa Calm     91 % 0.0 mm
07:52 9.3 °C 7.9 °C 1023.2 hPa Calm     91 % 0.0 mm
08:02 9.3 °C 7.9 °C 1023.6 hPa Calm     91 % 0.0 mm
08:12 9.4 °C 8.0 °C 1023.6 hPa Calm     91 % 0.0 mm
08:17 9.8 °C 8.4 °C 1023.6 hPa Calm     91 % 0.0 mm
08:27 10.8 °C 9.4 °C 1023.6 hPa Calm     91 % 0.0 mm
08:32 11.3 °C 9.4 °C 1023.6 hPa Calm     88 % 0.0 mm
08:42 11.2 °C 8.8 °C 1023.6 hPa Calm     85 % 0.0 mm
08:47 11.2 °C 8.8 °C 1023.6 hPa Calm     85 % 0.0 mm
08:52 11.2 °C 8.6 °C 1023.6 hPa Calm     84 % 0.0 mm
08:57 11.2 °C 8.8 °C 1023.6 hPa Calm     85 % 0.0 mm
09:02 11.3 °C 9.0 °C 1023.6 hPa Calm     86 % 0.0 mm
09:12 11.5 °C 9.2 °C 1023.6 hPa Calm     86 % 0.0 mm
09:17 11.6 °C 9.2 °C 1023.2 hPa Calm     85 % 0.0 mm
09:22 11.9 °C 9.5 °C 1023.2 hPa Calm     85 % 0.0 mm
09:32 12.9 °C 9.9 °C 1023.2 hPa Calm     82 % 0.0 mm
09:37 13.1 °C 9.7 °C 1023.2 hPa SW 1.6 km/h   80 % 0.0 mm
09:42 13.2 °C 9.6 °C 1023.2 hPa South 1.6 km/h 4.8 km/h 79 % 0.0 mm
09:52 13.8 °C 9.8 °C 1023.2 hPa South 3.2 km/h 6.4 km/h 77 % 0.0 mm
09:57 14.1 °C 9.9 °C 1023.2 hPa Calm   6.4 km/h 76 % 0.0 mm
10:02 14.3 °C 9.9 °C 1023.2 hPa SSE 1.6 km/h 4.8 km/h 75 % 0.0 mm
10:12 14.9 °C 10.1 °C 1023.2 hPa Calm   4.8 km/h 73 % 0.0 mm
10:17 15.2 °C 10.4 °C 1023.2 hPa SSW 6.4 km/h 6.4 km/h 73 % 0.0 mm
10:22 15.3 °C 10.3 °C 1023.2 hPa SW 4.8 km/h 6.4 km/h 72 % 0.0 mm
10:32 15.9 °C 10.4 °C 1023.2 hPa South 3.2 km/h 6.4 km/h 70 % 0.0 mm
10:42 16.8 °C 10.6 °C 1023.2 hPa SSE 1.6 km/h 9.7 km/h 67 % 0.0 mm
10:52 17.5 °C 10.6 °C 1023.2 hPa SW 4.8 km/h 11.3 km/h 64 % 0.0 mm
11:02 18.2 °C 10.8 °C 1022.9 hPa SW 8.0 km/h 12.9 km/h 62 % 0.0 mm
11:12 19.2 °C 10.7 °C 1022.9 hPa SSW 4.8 km/h 12.9 km/h 58 % 0.0 mm
11:17 19.7 °C 10.4 °C 1022.9 hPa SSW 4.8 km/h 12.9 km/h 55 % 0.0 mm
11:22 20.1 °C 10.5 °C 1022.9 hPa SW 9.7 km/h 14.5 km/h 54 % 0.0 mm
11:27 20.2 °C 10.6 °C 1022.6 hPa West 3.2 km/h 14.5 km/h 54 % 0.0 mm
11:32 20.4 °C 10.2 °C 1022.6 hPa SW 9.7 km/h 14.5 km/h 52 % 0.0 mm
11:42 20.8 °C 10.3 °C 1022.2 hPa SW 3.2 km/h 17.7 km/h 51 % 0.0 mm
11:47 21.1 °C 10.6 °C 1022.2 hPa SSW 14.5 km/h 17.7 km/h 51 % 0.0 mm
11:52 21.3 °C 10.5 °C 1022.2 hPa SW 3.2 km/h 20.9 km/h 50 % 0.0 mm
12:02 21.7 °C 10.5 °C 1022.2 hPa SW 11.3 km/h 19.3 km/h 49 % 0.0 mm
12:12 22.1 °C 10.6 °C 1021.9 hPa West 6.4 km/h 19.3 km/h 48 % 0.0 mm
12:17 22.3 °C 10.4 °C 1021.9 hPa WSW 19.3 km/h 19.3 km/h 47 % 0.0 mm
12:22 22.3 °C 10.8 °C 1021.9 hPa SW 11.3 km/h 20.9 km/h 48 % 0.0 mm
12:32 22.7 °C 10.8 °C 1021.9 hPa South 11.3 km/h 20.9 km/h 47 % 0.0 mm
12:42 22.7 °C 11.1 °C 1021.6 hPa WNW 6.4 km/h 19.3 km/h 48 % 0.0 mm
12:52 23.2 °C 10.9 °C 1021.6 hPa WNW 11.3 km/h 19.3 km/h 46 % 0.0 mm
13:02 23.4 °C 11.1 °C 1021.6 hPa SSW 12.9 km/h 25.7 km/h 46 % 0.0 mm
13:12 23.8 °C 11.2 °C 1021.2 hPa WSW 12.9 km/h 25.7 km/h 45 % 0.0 mm
13:17 23.7 °C 11.4 °C 1021.2 hPa SSW 12.9 km/h 22.5 km/h 46 % 0.0 mm
13:22 23.7 °C 11.4 °C 1021.2 hPa WSW 6.4 km/h 22.5 km/h 46 % 0.0 mm
13:32 24.0 °C 11.7 °C 1020.9 hPa SW 17.7 km/h 20.9 km/h 46 % 0.0 mm
13:37 24.0 °C 11.7 °C 1020.9 hPa West 4.8 km/h 27.4 km/h 46 % 0.0 mm
13:42 24.2 °C 11.8 °C 1020.9 hPa SW 12.9 km/h 27.4 km/h 46 % 0.0 mm
13:47 24.3 °C 11.6 °C 1020.9 hPa SW 9.7 km/h 24.1 km/h 45 % 0.0 mm
13:52 24.4 °C 11.4 °C 1020.5 hPa WSW 6.4 km/h 22.5 km/h 44 % 0.0 mm
13:57 24.6 °C 11.5 °C 1020.5 hPa SW 20.9 km/h 24.1 km/h 44 % 0.0 mm
14:02 24.5 °C 11.4 °C 1020.5 hPa SSW 16.1 km/h 24.1 km/h 44 % 0.0 mm
14:12 24.7 °C 11.6 °C 1020.2 hPa SW 11.3 km/h 25.7 km/h 44 % 0.0 mm
14:17 25.0 °C 11.6 °C 1020.2 hPa SSW 9.7 km/h 25.7 km/h 43 % 0.0 mm
14:22 25.0 °C 11.6 °C 1020.2 hPa SW 17.7 km/h 20.9 km/h 43 % 0.0 mm
14:27 24.9 °C 11.5 °C 1020.2 hPa WSW 3.2 km/h 20.9 km/h 43 % 0.0 mm
14:32 25.1 °C 11.6 °C 1019.9 hPa South 16.1 km/h 29.0 km/h 43 % 0.0 mm
14:42 25.2 °C 11.4 °C 1019.9 hPa West 4.8 km/h 29.0 km/h 42 % 0.0 mm
14:52 25.2 °C 11.4 °C 1019.9 hPa SSW 11.3 km/h 27.4 km/h 42 % 0.0 mm
15:07 25.8 °C 11.2 °C 1019.5 hPa SW 8.0 km/h 20.9 km/h 40 % 0.0 mm
15:12 25.7 °C 11.1 °C 1019.5 hPa SW 12.9 km/h 20.9 km/h 40 % 0.0 mm
15:17 25.7 °C 11.1 °C 1019.2 hPa West 9.7 km/h 24.1 km/h 40 % 0.0 mm
15:22 25.8 °C 11.2 °C 1019.2 hPa SSW 16.1 km/h 24.1 km/h 40 % 0.0 mm
15:27 25.8 °C 11.2 °C 1019.2 hPa WSW 9.7 km/h 24.1 km/h 40 % 0.0 mm
15:32 25.9 °C 11.3 °C 1019.2 hPa WSW 12.9 km/h 22.5 km/h 40 % 0.0 mm
15:37 25.8 °C 11.5 °C 1019.2 hPa SW 9.7 km/h 25.7 km/h 41 % 0.0 mm
15:42 26.0 °C 11.4 °C 1019.2 hPa WNW 6.4 km/h 25.7 km/h 40 % 0.0 mm
15:52 26.1 °C 11.4 °C 1018.8 hPa SW 20.9 km/h 20.9 km/h 40 % 0.0 mm
15:57 26.1 °C 11.4 °C 1018.8 hPa SW 16.1 km/h 22.5 km/h 40 % 0.0 mm
16:02 26.0 °C 11.4 °C 1018.8 hPa SW 17.7 km/h 24.1 km/h 40 % 0.0 mm
16:12 26.1 °C 11.1 °C 1018.8 hPa South 8.0 km/h 24.1 km/h 39 % 0.0 mm
16:17 26.2 °C 11.2 °C 1018.8 hPa West 12.9 km/h 22.5 km/h 39 % 0.0 mm
16:22 26.3 °C 11.2 °C 1018.8 hPa SW 16.1 km/h 22.5 km/h 39 % 0.0 mm
16:32 26.4 °C 11.3 °C 1018.5 hPa SW 11.3 km/h 27.4 km/h 39 % 0.0 mm
16:37 26.5 °C 11.4 °C 1018.5 hPa West 19.3 km/h 27.4 km/h 39 % 0.0 mm
16:42 26.3 °C 11.2 °C 1018.2 hPa SW 11.3 km/h 20.9 km/h 39 % 0.0 mm
16:47 26.4 °C 11.3 °C 1018.2 hPa SW 11.3 km/h 24.1 km/h 39 % 0.0 mm
16:52 26.4 °C 10.9 °C 1018.2 hPa WSW 16.1 km/h 24.1 km/h 38 % 0.0 mm
17:02 26.6 °C 11.1 °C 1018.2 hPa SW 17.7 km/h 29.0 km/h 38 % 0.0 mm
17:12 26.6 °C 11.1 °C 1017.8 hPa WSW 8.0 km/h 29.0 km/h 38 % 0.0 mm
17:17 26.6 °C 10.7 °C 1017.8 hPa SSW 16.1 km/h 24.1 km/h 37 % 0.0 mm
17:22 26.4 °C 10.5 °C 1017.8 hPa SW 9.7 km/h 27.4 km/h 37 % 0.0 mm
17:27 26.4 °C 10.5 °C 1017.5 hPa SW 16.1 km/h 27.4 km/h 37 % 0.0 mm
17:32 26.4 °C 10.5 °C 1017.8 hPa WSW 17.7 km/h 27.4 km/h 37 % 0.0 mm
17:37 26.5 °C 10.6 °C 1017.5 hPa SSW 14.5 km/h 24.1 km/h 37 % 0.0 mm
17:42 26.6 °C 10.7 °C 1017.5 hPa WSW 16.1 km/h 27.4 km/h 37 % 0.0 mm
17:47 26.6 °C 10.7 °C 1017.5 hPa SW 17.7 km/h 27.4 km/h 37 % 0.0 mm
17:52 26.6 °C 10.7 °C 1017.5 hPa WSW 11.3 km/h 27.4 km/h 37 % 0.0 mm
17:57 26.5 °C 10.6 °C 1017.5 hPa WSW 8.0 km/h 27.4 km/h 37 % 0.0 mm
18:02 26.4 °C 10.5 °C 1017.5 hPa SW 16.1 km/h 27.4 km/h 37 % 0.0 mm
18:12 26.3 °C 10.4 °C 1017.5 hPa SW 12.9 km/h 25.7 km/h 37 % 0.0 mm
18:17 26.3 °C 10.4 °C 1017.5 hPa SW 8.0 km/h 25.7 km/h 37 % 0.0 mm
18:22 26.2 °C 10.4 °C 1017.2 hPa WSW 16.1 km/h 25.7 km/h 37 % 0.0 mm
18:32 26.1 °C 10.7 °C 1017.5 hPa WSW 6.4 km/h 22.5 km/h 38 % 0.0 mm
18:42 25.9 °C 10.9 °C 1017.2 hPa SW 12.9 km/h 20.9 km/h 39 % 0.0 mm
18:52 25.8 °C 10.8 °C 1017.2 hPa SW 14.5 km/h 22.5 km/h 39 % 0.0 mm
18:57 25.7 °C 11.1 °C 1017.2 hPa SSW 6.4 km/h 22.5 km/h 40 % 0.0 mm
19:02 25.6 °C 11.0 °C 1017.2 hPa SW 11.3 km/h 22.5 km/h 40 % 0.0 mm
19:12 25.2 °C 11.0 °C 1017.2 hPa SSW 4.8 km/h 22.5 km/h 41 % 0.0 mm
19:22 24.9 °C 11.1 °C 1017.2 hPa SW 8.0 km/h 16.1 km/h 42 % 0.0 mm
19:32 24.3 °C 10.9 °C 1016.8 hPa SW 11.3 km/h 16.1 km/h 43 % 0.0 mm
19:42 24.0 °C 11.0 °C 1016.8 hPa SW 3.2 km/h 16.1 km/h 44 % 0.0 mm
19:47 23.9 °C 10.9 °C 1016.8 hPa SW 1.6 km/h 14.5 km/h 44 % 0.0 mm
19:52 23.8 °C 11.2 °C 1016.8 hPa WSW 3.2 km/h 14.5 km/h 45 % 0.0 mm
19:57 23.4 °C 10.8 °C 1016.8 hPa SW 3.2 km/h 11.3 km/h 45 % 0.0 mm
20:02 23.2 °C 10.9 °C 1016.8 hPa SW 3.2 km/h 9.7 km/h 46 % 0.0 mm
20:12 23.0 °C 11.1 °C 1016.8 hPa SW 6.4 km/h 8.0 km/h 47 % 0.0 mm
20:17 22.8 °C 10.9 °C 1016.8 hPa SW 6.4 km/h 8.0 km/h 47 % 0.0 mm
20:22 22.7 °C 11.1 °C 1016.8 hPa SW 6.4 km/h 8.0 km/h 48 % 0.0 mm
20:27 22.6 °C 11.0 °C 1016.8 hPa SSW 3.2 km/h 8.0 km/h 48 % 0.0 mm
20:32 22.5 °C 10.9 °C 1016.8 hPa West 9.7 km/h 9.7 km/h 48 % 0.0 mm
20:37 22.4 °C 10.8 °C 1016.8 hPa SSW 4.8 km/h 9.7 km/h 48 % 0.0 mm
20:42 22.3 °C 10.8 °C 1016.8 hPa SW 6.4 km/h 12.9 km/h 48 % 0.0 mm
20:57 21.1 °C 10.9 °C 1016.8 hPa SSW 3.2 km/h 11.3 km/h 52 % 0.0 mm
21:07 20.3 °C 10.7 °C 1016.8 hPa Calm   6.4 km/h 54 % 0.0 mm
21:12 20.1 °C 10.5 °C 1016.8 hPa Calm   6.4 km/h 54 % 0.0 mm
21:22 19.8 °C 10.8 °C 1017.2 hPa Calm   3.2 km/h 56 % 0.0 mm
21:27 19.6 °C 10.6 °C 1016.8 hPa Calm   3.2 km/h 56 % 0.0 mm
21:32 19.7 °C 10.7 °C 1017.2 hPa Calm   1.6 km/h 56 % 0.0 mm
21:37 19.6 °C 10.8 °C 1016.8 hPa WNW 3.2 km/h 3.2 km/h 57 % 0.0 mm
21:42 19.2 °C 10.5 °C 1017.2 hPa WNW 3.2 km/h 3.2 km/h 57 % 0.0 mm
21:47 19.2 °C 10.7 °C 1017.2 hPa Calm   3.2 km/h 58 % 0.0 mm
21:52 18.9 °C 10.7 °C 1017.2 hPa Calm   3.2 km/h 59 % 0.0 mm
21:57 19.0 °C 10.8 °C 1017.2 hPa Calm   3.2 km/h 59 % 0.0 mm
22:02 18.9 °C 10.7 °C 1017.2 hPa Calm   3.2 km/h 59 % 0.0 mm
22:12 18.8 °C 10.9 °C 1017.2 hPa Calm     60 % 0.0 mm
22:17 18.7 °C 10.8 °C 1017.2 hPa Calm     60 % 0.0 mm
22:22 18.4 °C 10.7 °C 1017.2 hPa Calm     61 % 0.0 mm
22:27 18.3 °C 10.6 °C 1017.2 hPa Calm     61 % 0.0 mm
22:32 18.1 °C 10.5 °C 1017.2 hPa Calm     61 % 0.0 mm
22:37 17.8 °C 10.4 °C 1017.2 hPa Calm     62 % 0.0 mm
22:42 17.7 °C 10.6 °C 1017.2 hPa Calm     63 % 0.0 mm
22:47 17.9 °C 10.5 °C 1017.2 hPa Calm     62 % 0.0 mm
22:57 17.6 °C 10.2 °C 1017.2 hPa Calm     62 % 0.0 mm
23:02 17.4 °C 10.3 °C 1017.2 hPa Calm     63 % 0.0 mm
23:07 17.3 °C 10.4 °C 1017.2 hPa Calm     64 % 0.0 mm
23:17 17.1 °C 10.2 °C 1016.8 hPa Calm     64 % 0.0 mm
23:22 16.9 °C 10.3 °C 1016.8 hPa Calm     65 % 0.0 mm
23:32 16.4 °C 10.0 °C 1016.8 hPa Calm     66 % 0.0 mm
23:37 16.4 °C 10.0 °C 1016.8 hPa Calm     66 % 0.0 mm
23:42 16.3 °C 9.9 °C 1016.8 hPa Calm     66 % 0.0 mm
23:47 16.0 °C 9.9 °C 1016.8 hPa Calm     67 % 0.0 mm
23:52 15.8 °C 9.9 °C 1016.8 hPa Calm     68 % 0.0 mm
23:57 15.7 °C 9.8 °C 1016.5 hPa Calm     68 % 0.0 mm
Meteo18
Compliments of Weather Underground - 4 mb

Script developed by  Jim McMurry - jmcmurry@mwt.net Adapted for the template by  Wim van der Kuil - Leuven-Template.eu

You find our weather info also at:

European Weather Network

Weather Underground

Equipment we use:

Weather-station
Davis Vue

Weather-program
Meteohub

Weather-server
Raspberry PI 2 B+

Provider
1 and 1

Davis Vue

Meteohub

Raspberry PI 2 B+

1 and 1